Archival Weather

Václav Havel Intl Apt

Prague, Czechia (LKPR)

Report from: Monday, May 29, 2023 11:00 PM CEST
Current time: Saturday, February 24, 2024 3:51 PM CET

Current weather – Weather history – Daily summaries
Weather forecast

Temperature14.0°C (57.2°F)
Dew point6.0°C (42.8°F)
Winds 5 kts (2.6 m/s, 5.8 mph) North (350°)
Clouds Sky clear
Altimeter30.12 in.Hg (1020 mB)
Relative humidity59 %
Density altitude-210 ft. (-64 m)
Remarks Ceiling and visibility OK
No significant changes expected in the next two hours
Flight conditions Visual Meteorological Conditions
Raw dataLKPR 292100Z 35005KT CAVOK 14/06 Q1020 NOSIG
An error has occurred. This application may no longer respond until reloaded. Reload 🗙